Česky Dansk Deutsch English Español Suomi Français Magyar Italiano Nederlands norsk Polski Português svenska Türkçe

 

Weather

Rotterdam Airport Zestienhoven (Netherlands)

01:25, 23 August 2016 (GMT)

NWNNE
WE
SWSSE
Home            
Rotterdam Airport Zestienhoven Valkenburg Amsterdam Airport Schiphol De Bilt Gilze-Rijen Woensdrecht Soesterberg Brasschaat Weelde Military Antwerpen / Deurne Eindhoven Lelystad Volkel Gent / Industrie-Zone Deelen De Kooy Kleine Brogel Schaffen Melsbroek Bel-Afb Bruxelles National Niederrhein Laarbruch Munte

To put a weather button on your web site or blog, copy the code below and paste it into your page . The first box contains HTML code, the second UBB code.


Add to Google

Details

Wind speed:2 bf, 4 kn, 2.1 m/s, 4.6 miles/h, 7.4 km/h
Wind direction:SSW, 210°
Visibility:Greater than 10000 m, 10 km, 32800 ft, 6.2 miles
Clouds:Overcast at 4500 ft, 1372 m
Temperature:18°C, 64°F
Dew-point:16°C, 61°F
Atmospheric pressure:1025 hPa, 768.8 mmHg, 30.27 inHg, 1.012 atm
Relative humidity:88.1 %
METAR:EHRD 230125Z AUTO 21004KT 9999 OVC045 18/16 Q1025 NOSIG

Shortcuts

An up-to-date overview of weather conditions all over the world. Add locations with the plus (+) sign. These shortcuts can be added to Google.

Lid van de Technetium groep

website free tracking
StatCounter NetStat W3C Validator

07-12-2021 06:35:52
astro.technetium.be money.technetium.be phote.technetium.be tafeltennistafel.technetium.be www.ligfiets.net